sensor_id;sensor_type;location;lat;lon;timestamp;P1;durP1;ratioP1;P2;durP2;ratioP2
75593;SDS011;64176;49.156;7.810;2023-03-14T00:01:57;1.15;;;0.70;;
75593;SDS011;64176;49.156;7.810;2023-03-14T00:04:42;1.63;;;1.00;;
75593;SDS011;64176;49.156;7.810;2023-03-14T00:07:26;2.08;;;0.90;;
75593;SDS011;64176;49.156;7.810;2023-03-14T00:10:11;3.38;;;0.68;;
75593;SDS011;64176;49.156;7.810;2023-03-14T00:12:59;2.70;;;0.70;;
75593;SDS011;64176;49.156;7.810;2023-03-14T00:15:43;2.45;;;0.60;;
75593;SDS011;64176;49.156;7.810;2023-03-14T00:18:30;3.88;;;0.70;;
75593;SDS011;64176;49.156;7.810;2023-03-14T00:21:14;1.23;;;0.85;;
75593;SDS011;64176;49.156;7.810;2023-03-14T00:23:59;0.80;;;0.65;;
75593;SDS011;64176;49.156;7.810;2023-03-14T00:26:45;2.83;;;1.75;;
75593;SDS011;64176;49.156;7.810;2023-03-14T00:29:39;2.17;;;0.98;;
75593;SDS011;64176;49.156;7.810;2023-03-14T00:32:23;2.45;;;1.30;;
75593;SDS011;64176;49.156;7.810;2023-03-14T00:35:07;2.00;;;1.05;;
75593;SDS011;64176;49.156;7.810;2023-03-14T00:37:57;5.43;;;1.45;;
75593;SDS011;64176;49.156;7.810;2023-03-14T00:40:46;3.15;;;0.82;;
75593;SDS011;64176;49.156;7.810;2023-03-14T00:43:30;2.88;;;0.85;;
75593;SDS011;64176;49.156;7.810;2023-03-14T00:46:14;1.38;;;0.90;;
75593;SDS011;64176;49.156;7.810;2023-03-14T00:48:58;2.33;;;1.48;;
75593;SDS011;64176;49.156;7.810;2023-03-14T00:51:42;2.05;;;0.80;;
75593;SDS011;64176;49.156;7.810;2023-03-14T00:54:26;2.58;;;0.95;;
75593;SDS011;64176;49.156;7.810;2023-03-14T00:57:12;1.25;;;0.85;;
75593;SDS011;64176;49.156;7.810;2023-03-14T00:59:56;3.65;;;1.20;;
75593;SDS011;64176;49.156;7.810;2023-03-14T01:02:40;5.18;;;1.65;;
75593;SDS011;64176;49.156;7.810;2023-03-14T01:05:27;2.00;;;0.98;;
75593;SDS011;64176;49.156;7.810;2023-03-14T01:08:11;2.58;;;0.98;;
75593;SDS011;64176;49.156;7.810;2023-03-14T01:10:58;1.90;;;1.05;;
75593;SDS011;64176;49.156;7.810;2023-03-14T01:13:42;1.73;;;0.93;;
75593;SDS011;64176;49.156;7.810;2023-03-14T01:16:29;2.78;;;1.48;;
75593;SDS011;64176;49.156;7.810;2023-03-14T01:19:20;2.97;;;0.80;;
75593;SDS011;64176;49.156;7.810;2023-03-14T01:22:04;2.33;;;1.10;;
75593;SDS011;64176;49.156;7.810;2023-03-14T01:24:48;3.35;;;1.10;;
75593;SDS011;64176;49.156;7.810;2023-03-14T01:27:33;1.73;;;0.82;;
75593;SDS011;64176;49.156;7.810;2023-03-14T01:30:19;2.10;;;1.00;;
75593;SDS011;64176;49.156;7.810;2023-03-14T01:33:03;2.63;;;1.25;;
75593;SDS011;64176;49.156;7.810;2023-03-14T01:35:51;3.63;;;1.00;;
75593;SDS011;64176;49.156;7.810;2023-03-14T01:38:35;1.25;;;1.15;;
75593;SDS011;64176;49.156;7.810;2023-03-14T01:41:32;2.00;;;1.48;;
75593;SDS011;64176;49.156;7.810;2023-03-14T01:44:17;3.67;;;1.60;;
75593;SDS011;64176;49.156;7.810;2023-03-14T01:47:04;2.35;;;0.70;;
75593;SDS011;64176;49.156;7.810;2023-03-14T01:50:04;3.15;;;0.90;;
75593;SDS011;64176;49.156;7.810;2023-03-14T01:52:55;2.83;;;1.08;;
75593;SDS011;64176;49.156;7.810;2023-03-14T01:55:41;2.25;;;1.05;;
75593;SDS011;64176;49.156;7.810;2023-03-14T01:58:27;3.65;;;0.85;;
75593;SDS011;64176;49.156;7.810;2023-03-14T02:01:14;2.08;;;0.75;;
75593;SDS011;64176;49.156;7.810;2023-03-14T02:04:01;2.58;;;0.77;;
75593;SDS011;64176;49.156;7.810;2023-03-14T02:06:51;2.15;;;0.80;;
75593;SDS011;64176;49.156;7.810;2023-03-14T02:09:44;3.72;;;1.13;;
75593;SDS011;64176;49.156;7.810;2023-03-14T02:12:34;1.23;;;0.55;;
75593;SDS011;64176;49.156;7.810;2023-03-14T02:15:34;4.68;;;1.33;;
75593;SDS011;64176;49.156;7.810;2023-03-14T02:18:29;2.17;;;0.93;;
75593;SDS011;64176;49.156;7.810;2023-03-14T02:21:20;5.10;;;1.25;;
75593;SDS011;64176;49.156;7.810;2023-03-14T02:24:29;3.28;;;1.13;;
75593;SDS011;64176;49.156;7.810;2023-03-14T02:27:41;4.63;;;1.30;;
75593;SDS011;64176;49.156;7.810;2023-03-14T02:30:26;2.33;;;0.80;;
75593;SDS011;64176;49.156;7.810;2023-03-14T02:33:13;0.60;;;0.60;;
75593;SDS011;64176;49.156;7.810;2023-03-14T02:36:02;4.55;;;1.27;;
75593;SDS011;64176;49.156;7.810;2023-03-14T02:41:57;2.50;;;0.80;;
75593;SDS011;64176;49.156;7.810;2023-03-14T02:44:54;2.50;;;0.85;;
75593;SDS011;64176;49.156;7.810;2023-03-14T02:47:47;2.53;;;1.00;;
75593;SDS011;64176;49.156;7.810;2023-03-14T02:50:41;3.15;;;0.93;;
75593;SDS011;64176;49.156;7.810;2023-03-14T02:53:30;2.30;;;0.55;;
75593;SDS011;64176;49.156;7.810;2023-03-14T02:56:22;4.65;;;1.02;;
75593;SDS011;64176;49.156;7.810;2023-03-14T02:59:08;4.63;;;0.60;;
75593;SDS011;64176;49.156;7.810;2023-03-14T03:02:13;2.50;;;0.65;;
75593;SDS011;64176;49.156;7.810;2023-03-14T03:05:00;4.65;;;1.27;;
75593;SDS011;64176;49.156;7.810;2023-03-14T03:07:45;3.45;;;0.68;;
75593;SDS011;64176;49.156;7.810;2023-03-14T03:10:29;3.08;;;0.68;;
75593;SDS011;64176;49.156;7.810;2023-03-14T03:13:14;2.80;;;0.88;;
75593;SDS011;64176;49.156;7.810;2023-03-14T03:16:00;4.18;;;1.27;;
75593;SDS011;64176;49.156;7.810;2023-03-14T03:18:44;2.55;;;0.70;;
75593;SDS011;64176;49.156;7.810;2023-03-14T03:21:31;3.13;;;0.73;;
75593;SDS011;64176;49.156;7.810;2023-03-14T03:24:15;2.70;;;0.80;;
75593;SDS011;64176;49.156;7.810;2023-03-14T03:26:59;2.65;;;0.93;;
75593;SDS011;64176;49.156;7.810;2023-03-14T03:29:43;2.83;;;0.95;;
75593;SDS011;64176;49.156;7.810;2023-03-14T03:32:27;3.80;;;2.13;;
75593;SDS011;64176;49.156;7.810;2023-03-14T03:35:11;3.35;;;0.70;;
75593;SDS011;64176;49.156;7.810;2023-03-14T03:37:56;5.88;;;0.95;;
75593;SDS011;64176;49.156;7.810;2023-03-14T03:40:40;5.30;;;1.10;;
75593;SDS011;64176;49.156;7.810;2023-03-14T03:43:26;3.70;;;0.82;;
75593;SDS011;64176;49.156;7.810;2023-03-14T03:46:20;1.05;;;0.50;;
75593;SDS011;64176;49.156;7.810;2023-03-14T03:49:03;1.52;;;0.80;;
75593;SDS011;64176;49.156;7.810;2023-03-14T03:51:50;1.75;;;0.73;;
75593;SDS011;64176;49.156;7.810;2023-03-14T03:54:39;1.27;;;0.57;;
75593;SDS011;64176;49.156;7.810;2023-03-14T03:57:26;3.65;;;0.50;;
75593;SDS011;64176;49.156;7.810;2023-03-14T04:00:13;2.78;;;0.75;;
75593;SDS011;64176;49.156;7.810;2023-03-14T04:03:00;1.80;;;0.57;;
75593;SDS011;64176;49.156;7.810;2023-03-14T04:05:57;2.42;;;0.50;;
75593;SDS011;64176;49.156;7.810;2023-03-14T04:08:44;2.17;;;0.77;;
75593;SDS011;64176;49.156;7.810;2023-03-14T04:11:44;2.13;;;0.88;;
75593;SDS011;64176;49.156;7.810;2023-03-14T04:14:37;2.45;;;0.63;;
75593;SDS011;64176;49.156;7.810;2023-03-14T04:17:30;4.25;;;0.77;;
75593;SDS011;64176;49.156;7.810;2023-03-14T04:20:15;1.50;;;1.13;;
75593;SDS011;64176;49.156;7.810;2023-03-14T04:23:01;2.50;;;1.02;;
75593;SDS011;64176;49.156;7.810;2023-03-14T04:25:47;2.33;;;1.35;;
75593;SDS011;64176;49.156;7.810;2023-03-14T04:28:32;5.63;;;1.73;;
75593;SDS011;64176;49.156;7.810;2023-03-14T04:31:21;2.45;;;0.70;;
75593;SDS011;64176;49.156;7.810;2023-03-14T04:34:11;1.85;;;0.80;;
75593;SDS011;64176;49.156;7.810;2023-03-14T04:37:02;2.50;;;0.70;;
75593;SDS011;64176;49.156;7.810;2023-03-14T04:39:59;3.13;;;0.90;;
75593;SDS011;64176;49.156;7.810;2023-03-14T04:42:50;2.45;;;0.70;;
75593;SDS011;64176;49.156;7.810;2023-03-14T04:45:34;1.42;;;1.33;;
75593;SDS011;64176;49.156;7.810;2023-03-14T04:48:24;1.10;;;0.40;;
75593;SDS011;64176;49.156;7.810;2023-03-14T04:51:17;4.07;;;0.52;;
75593;SDS011;64176;49.156;7.810;2023-03-14T04:54:04;4.30;;;1.20;;
75593;SDS011;64176;49.156;7.810;2023-03-14T04:56:48;4.82;;;1.15;;
75593;SDS011;64176;49.156;7.810;2023-03-14T04:59:34;3.85;;;1.13;;
75593;SDS011;64176;49.156;7.810;2023-03-14T05:02:44;3.83;;;2.03;;
75593;SDS011;64176;49.156;7.810;2023-03-14T05:05:39;3.20;;;1.67;;
75593;SDS011;64176;49.156;7.810;2023-03-14T05:08:33;3.60;;;1.33;;
75593;SDS011;64176;49.156;7.810;2023-03-14T05:11:30;2.13;;;0.95;;
75593;SDS011;64176;49.156;7.810;2023-03-14T05:14:34;1.70;;;0.60;;
75593;SDS011;64176;49.156;7.810;2023-03-14T05:17:40;3.78;;;2.90;;
75593;SDS011;64176;49.156;7.810;2023-03-14T05:20:49;2.15;;;1.40;;
75593;SDS011;64176;49.156;7.810;2023-03-14T05:24:02;2.33;;;1.23;;
75593;SDS011;64176;49.156;7.810;2023-03-14T05:27:08;0.70;;;0.60;;
75593;SDS011;64176;49.156;7.810;2023-03-14T05:30:15;2.50;;;0.70;;
75593;SDS011;64176;49.156;7.810;2023-03-14T05:33:31;3.72;;;2.38;;
75593;SDS011;64176;49.156;7.810;2023-03-14T05:36:33;1.10;;;1.00;;
75593;SDS011;64176;49.156;7.810;2023-03-14T05:39:23;3.85;;;1.40;;
75593;SDS011;64176;49.156;7.810;2023-03-14T05:42:11;4.53;;;1.58;;
75593;SDS011;64176;49.156;7.810;2023-03-14T05:45:11;3.80;;;0.75;;
75593;SDS011;64176;49.156;7.810;2023-03-14T05:48:19;3.28;;;0.75;;
75593;SDS011;64176;49.156;7.810;2023-03-14T05:51:19;3.10;;;0.75;;
75593;SDS011;64176;49.156;7.810;2023-03-14T05:54:22;0.90;;;0.63;;
75593;SDS011;64176;49.156;7.810;2023-03-14T05:57:22;2.13;;;0.85;;
75593;SDS011;64176;49.156;7.810;2023-03-14T06:00:29;3.22;;;0.57;;
75593;SDS011;64176;49.156;7.810;2023-03-14T06:03:31;1.13;;;0.50;;
75593;SDS011;64176;49.156;7.810;2023-03-14T06:06:23;0.63;;;0.60;;
75593;SDS011;64176;49.156;7.810;2023-03-14T06:09:08;1.92;;;0.63;;
75593;SDS011;64176;49.156;7.810;2023-03-14T06:11:56;3.35;;;0.88;;
75593;SDS011;64176;49.156;7.810;2023-03-14T06:14:40;5.07;;;0.90;;
75593;SDS011;64176;49.156;7.810;2023-03-14T06:17:26;2.97;;;0.70;;
75593;SDS011;64176;49.156;7.810;2023-03-14T06:20:20;1.63;;;0.90;;
75593;SDS011;64176;49.156;7.810;2023-03-14T06:23:05;3.47;;;0.93;;
75593;SDS011;64176;49.156;7.810;2023-03-14T06:25:54;1.80;;;0.80;;
75593;SDS011;64176;49.156;7.810;2023-03-14T06:28:44;1.67;;;1.00;;
75593;SDS011;64176;49.156;7.810;2023-03-14T06:31:31;2.10;;;0.50;;
75593;SDS011;64176;49.156;7.810;2023-03-14T06:34:22;6.78;;;1.73;;
75593;SDS011;64176;49.156;7.810;2023-03-14T06:37:06;3.45;;;1.67;;
75593;SDS011;64176;49.156;7.810;2023-03-14T06:39:50;3.08;;;1.33;;
75593;SDS011;64176;49.156;7.810;2023-03-14T06:42:47;1.25;;;0.45;;
75593;SDS011;64176;49.156;7.810;2023-03-14T06:45:35;2.92;;;0.63;;
75593;SDS011;64176;49.156;7.810;2023-03-14T06:48:21;2.47;;;0.70;;
75593;SDS011;64176;49.156;7.810;2023-03-14T06:51:12;2.35;;;1.10;;
75593;SDS011;64176;49.156;7.810;2023-03-14T06:53:56;4.50;;;2.15;;
75593;SDS011;64176;49.156;7.810;2023-03-14T06:56:43;5.10;;;2.00;;
75593;SDS011;64176;49.156;7.810;2023-03-14T06:59:27;4.03;;;0.70;;
75593;SDS011;64176;49.156;7.810;2023-03-14T07:02:11;1.63;;;0.63;;
75593;SDS011;64176;49.156;7.810;2023-03-14T07:04:57;1.95;;;0.85;;
75593;SDS011;64176;49.156;7.810;2023-03-14T07:07:44;1.65;;;0.85;;
75593;SDS011;64176;49.156;7.810;2023-03-14T07:10:33;1.17;;;0.68;;
75593;SDS011;64176;49.156;7.810;2023-03-14T07:13:17;1.63;;;0.70;;
75593;SDS011;64176;49.156;7.810;2023-03-14T07:16:09;1.95;;;0.75;;
75593;SDS011;64176;49.156;7.810;2023-03-14T07:18:54;1.55;;;0.65;;
75593;SDS011;64176;49.156;7.810;2023-03-14T07:21:43;3.65;;;0.75;;
75593;SDS011;64176;49.156;7.810;2023-03-14T07:24:30;0.90;;;0.90;;
75593;SDS011;64176;49.156;7.810;2023-03-14T07:27:13;1.50;;;0.73;;
75593;SDS011;64176;49.156;7.810;2023-03-14T07:29:57;3.53;;;1.35;;
75593;SDS011;64176;49.156;7.810;2023-03-14T07:32:44;1.80;;;1.17;;
75593;SDS011;64176;49.156;7.810;2023-03-14T07:35:29;3.08;;;1.10;;
75593;SDS011;64176;49.156;7.810;2023-03-14T07:38:19;0.73;;;0.60;;
75593;SDS011;64176;49.156;7.810;2023-03-14T07:41:24;0.88;;;0.63;;
75593;SDS011;64176;49.156;7.810;2023-03-14T07:44:27;1.90;;;1.30;;
75593;SDS011;64176;49.156;7.810;2023-03-14T07:47:11;1.50;;;0.95;;
75593;SDS011;64176;49.156;7.810;2023-03-14T07:49:55;1.20;;;0.75;;
75593;SDS011;64176;49.156;7.810;2023-03-14T07:52:42;1.15;;;0.98;;
75593;SDS011;64176;49.156;7.810;2023-03-14T07:55:28;0.65;;;0.60;;
75593;SDS011;64176;49.156;7.810;2023-03-14T07:58:12;1.92;;;0.80;;
75593;SDS011;64176;49.156;7.810;2023-03-14T08:00:57;2.08;;;0.93;;
75593;SDS011;64176;49.156;7.810;2023-03-14T08:03:41;1.52;;;0.82;;
75593;SDS011;64176;49.156;7.810;2023-03-14T08:06:28;1.70;;;0.85;;
75593;SDS011;64176;49.156;7.810;2023-03-14T08:09:12;1.13;;;1.02;;
75593;SDS011;64176;49.156;7.810;2023-03-14T08:11:56;0.68;;;0.68;;
75593;SDS011;64176;49.156;7.810;2023-03-14T08:14:42;0.80;;;0.40;;
75593;SDS011;64176;49.156;7.810;2023-03-14T08:17:29;2.05;;;0.50;;
75593;SDS011;64176;49.156;7.810;2023-03-14T08:20:13;2.35;;;0.55;;
75593;SDS011;64176;49.156;7.810;2023-03-14T08:22:59;1.15;;;0.40;;
75593;SDS011;64176;49.156;7.810;2023-03-14T08:25:45;1.27;;;0.85;;
75593;SDS011;64176;49.156;7.810;2023-03-14T08:28:34;0.98;;;0.88;;
75593;SDS011;64176;49.156;7.810;2023-03-14T08:31:18;0.73;;;0.60;;
75593;SDS011;64176;49.156;7.810;2023-03-14T08:34:04;2.05;;;0.75;;
75593;SDS011;64176;49.156;7.810;2023-03-14T08:36:50;1.00;;;0.73;;
75593;SDS011;64176;49.156;7.810;2023-03-14T08:39:34;1.67;;;0.82;;
75593;SDS011;64176;49.156;7.810;2023-03-14T08:42:18;0.60;;;0.60;;
75593;SDS011;64176;49.156;7.810;2023-03-14T08:45:03;1.42;;;0.50;;
75593;SDS011;64176;49.156;7.810;2023-03-14T08:47:52;0.70;;;0.70;;
75593;SDS011;64176;49.156;7.810;2023-03-14T08:50:41;9.38;;;4.63;;
75593;SDS011;64176;49.156;7.810;2023-03-14T08:53:25;1.05;;;0.60;;
75593;SDS011;64176;49.156;7.810;2023-03-14T08:56:09;2.53;;;1.05;;
75593;SDS011;64176;49.156;7.810;2023-03-14T08:58:54;3.17;;;1.13;;
75593;SDS011;64176;49.156;7.810;2023-03-14T09:01:38;1.95;;;1.05;;
75593;SDS011;64176;49.156;7.810;2023-03-14T09:04:24;1.02;;;1.02;;
75593;SDS011;64176;49.156;7.810;2023-03-14T09:07:08;1.75;;;1.10;;
75593;SDS011;64176;49.156;7.810;2023-03-14T09:09:54;0.82;;;0.82;;
75593;SDS011;64176;49.156;7.810;2023-03-14T09:12:40;2.53;;;1.33;;
75593;SDS011;64176;49.156;7.810;2023-03-14T09:15:24;2.95;;;0.77;;
75593;SDS011;64176;49.156;7.810;2023-03-14T09:18:08;0.68;;;0.57;;
75593;SDS011;64176;49.156;7.810;2023-03-14T09:20:52;1.65;;;1.10;;
75593;SDS011;64176;49.156;7.810;2023-03-14T09:23:36;0.70;;;0.57;;
75593;SDS011;64176;49.156;7.810;2023-03-14T09:26:20;0.75;;;0.70;;
75593;SDS011;64176;49.156;7.810;2023-03-14T09:29:04;0.50;;;0.50;;
75593;SDS011;64176;49.156;7.810;2023-03-14T09:31:51;2.08;;;0.82;;
75593;SDS011;64176;49.156;7.810;2023-03-14T09:34:38;1.85;;;1.10;;
75593;SDS011;64176;49.156;7.810;2023-03-14T09:37:22;1.42;;;0.93;;
75593;SDS011;64176;49.156;7.810;2023-03-14T09:40:06;0.73;;;0.73;;
75593;SDS011;64176;49.156;7.810;2023-03-14T09:42:55;0.35;;;0.35;;
75593;SDS011;64176;49.156;7.810;2023-03-14T09:45:39;0.73;;;0.68;;
75593;SDS011;64176;49.156;7.810;2023-03-14T09:48:27;1.30;;;0.50;;
75593;SDS011;64176;49.156;7.810;2023-03-14T09:51:15;0.43;;;0.40;;
75593;SDS011;64176;49.156;7.810;2023-03-14T09:54:01;2.63;;;0.90;;
75593;SDS011;64176;49.156;7.810;2023-03-14T09:56:46;0.73;;;0.70;;
75593;SDS011;64176;49.156;7.810;2023-03-14T09:59:32;0.75;;;0.45;;
75593;SDS011;64176;49.156;7.810;2023-03-14T10:02:22;0.50;;;0.50;;
75593;SDS011;64176;49.156;7.810;2023-03-14T10:05:13;0.70;;;0.50;;
75593;SDS011;64176;49.156;7.810;2023-03-14T10:08:02;0.30;;;0.20;;
75593;SDS011;64176;49.156;7.810;2023-03-14T10:10:46;0.38;;;0.38;;
75593;SDS011;64176;49.156;7.810;2023-03-14T10:13:32;1.20;;;0.73;;
75593;SDS011;64176;49.156;7.810;2023-03-14T10:16:19;1.42;;;1.33;;
75593;SDS011;64176;49.156;7.810;2023-03-14T10:19:16;1.63;;;0.50;;
75593;SDS011;64176;49.156;7.810;2023-03-14T10:22:01;0.93;;;0.47;;
75593;SDS011;64176;49.156;7.810;2023-03-14T10:24:53;1.73;;;0.70;;
75593;SDS011;64176;49.156;7.810;2023-03-14T10:27:40;0.60;;;0.60;;
75593;SDS011;64176;49.156;7.810;2023-03-14T10:33:29;0.28;;;0.28;;
75593;SDS011;64176;49.156;7.810;2023-03-14T10:36:19;0.20;;;0.20;;
75593;SDS011;64176;49.156;7.810;2023-03-14T10:42:19;0.57;;;0.57;;
75593;SDS011;64176;49.156;7.810;2023-03-14T10:51:05;0.82;;;0.80;;
75593;SDS011;64176;49.156;7.810;2023-03-14T10:54:00;0.88;;;0.70;;
75593;SDS011;64176;49.156;7.810;2023-03-14T10:56:59;0.60;;;0.60;;
75593;SDS011;64176;49.156;7.810;2023-03-14T10:59:44;1.05;;;0.60;;
75593;SDS011;64176;49.156;7.810;2023-03-14T11:08:37;0.70;;;0.70;;
75593;SDS011;64176;49.156;7.810;2023-03-14T11:11:25;1.23;;;1.13;;
75593;SDS011;64176;49.156;7.810;2023-03-14T11:17:27;2.20;;;1.60;;
75593;SDS011;64176;49.156;7.810;2023-03-14T11:23:18;1.70;;;1.40;;
75593;SDS011;64176;49.156;7.810;2023-03-14T11:29:12;2.97;;;1.30;;
75593;SDS011;64176;49.156;7.810;2023-03-14T11:32:07;1.63;;;1.17;;
75593;SDS011;64176;49.156;7.810;2023-03-14T11:34:56;2.03;;;1.55;;
75593;SDS011;64176;49.156;7.810;2023-03-14T11:37:55;2.42;;;1.13;;
75593;SDS011;64176;49.156;7.810;2023-03-14T11:40:56;2.55;;;1.27;;
75593;SDS011;64176;49.156;7.810;2023-03-14T11:43:46;1.15;;;0.98;;
75593;SDS011;64176;49.156;7.810;2023-03-14T11:46:42;2.15;;;1.48;;
75593;SDS011;64176;49.156;7.810;2023-03-14T11:55:38;1.15;;;1.00;;
75593;SDS011;64176;49.156;7.810;2023-03-14T11:58:27;1.35;;;1.00;;
75593;SDS011;64176;49.156;7.810;2023-03-14T12:01:13;2.15;;;0.98;;
75593;SDS011;64176;49.156;7.810;2023-03-14T12:04:21;1.13;;;0.95;;
75593;SDS011;64176;49.156;7.810;2023-03-14T12:07:42;0.80;;;0.77;;
75593;SDS011;64176;49.156;7.810;2023-03-14T12:10:51;8.57;;;3.72;;
75593;SDS011;64176;49.156;7.810;2023-03-14T12:13:38;4.07;;;2.08;;
75593;SDS011;64176;49.156;7.810;2023-03-14T12:16:32;11.50;;;5.18;;
75593;SDS011;64176;49.156;7.810;2023-03-14T12:22:26;2.50;;;0.95;;
75593;SDS011;64176;49.156;7.810;2023-03-14T12:25:22;0.57;;;0.57;;
75593;SDS011;64176;49.156;7.810;2023-03-14T12:28:20;2.08;;;0.80;;
75593;SDS011;64176;49.156;7.810;2023-03-14T12:37:09;2.03;;;0.80;;
75593;SDS011;64176;49.156;7.810;2023-03-14T12:43:28;0.90;;;0.60;;
75593;SDS011;64176;49.156;7.810;2023-03-14T12:49:07;1.38;;;0.65;;
75593;SDS011;64176;49.156;7.810;2023-03-14T12:51:53;1.15;;;0.65;;
75593;SDS011;64176;49.156;7.810;2023-03-14T12:57:57;1.85;;;0.98;;
75593;SDS011;64176;49.156;7.810;2023-03-14T13:00:51;3.45;;;0.93;;
75593;SDS011;64176;49.156;7.810;2023-03-14T13:03:46;0.95;;;0.45;;
75593;SDS011;64176;49.156;7.810;2023-03-14T13:09:51;2.08;;;0.88;;
75593;SDS011;64176;49.156;7.810;2023-03-14T13:12:55;1.10;;;0.60;;
75593;SDS011;64176;49.156;7.810;2023-03-14T13:15:48;0.85;;;0.70;;
75593;SDS011;64176;49.156;7.810;2023-03-14T13:18:42;0.47;;;0.47;;
75593;SDS011;64176;49.156;7.810;2023-03-14T13:21:34;0.95;;;0.93;;
75593;SDS011;64176;49.156;7.810;2023-03-14T13:24:24;1.92;;;0.60;;
75593;SDS011;64176;49.156;7.810;2023-03-14T13:27:16;1.50;;;0.93;;
75593;SDS011;64176;49.156;7.810;2023-03-14T13:30:13;2.55;;;0.60;;
75593;SDS011;64176;49.156;7.810;2023-03-14T13:33:02;0.57;;;0.50;;
75593;SDS011;64176;49.156;7.810;2023-03-14T13:35:58;4.43;;;1.40;;
75593;SDS011;64176;49.156;7.810;2023-03-14T13:38:55;2.03;;;1.30;;
75593;SDS011;64176;49.156;7.810;2023-03-14T13:41:44;1.08;;;0.70;;
75593;SDS011;64176;49.156;7.810;2023-03-14T13:44:35;1.20;;;0.70;;
75593;SDS011;64176;49.156;7.810;2023-03-14T13:47:23;1.67;;;0.90;;
75593;SDS011;64176;49.156;7.810;2023-03-14T13:50:17;1.80;;;0.68;;
75593;SDS011;64176;49.156;7.810;2023-03-14T13:53:09;1.65;;;0.77;;
75593;SDS011;64176;49.156;7.810;2023-03-14T13:55:57;1.27;;;1.00;;
75593;SDS011;64176;49.156;7.810;2023-03-14T13:58:48;1.85;;;0.60;;
75593;SDS011;64176;49.156;7.810;2023-03-14T14:01:38;1.42;;;0.75;;
75593;SDS011;64176;49.156;7.810;2023-03-14T14:04:23;2.53;;;0.65;;
75593;SDS011;64176;49.156;7.810;2023-03-14T14:07:10;3.75;;;1.17;;
75593;SDS011;64176;49.156;7.810;2023-03-14T14:10:00;1.65;;;0.70;;
75593;SDS011;64176;49.156;7.810;2023-03-14T14:12:47;2.17;;;0.85;;
75593;SDS011;64176;49.156;7.810;2023-03-14T14:15:37;3.15;;;0.88;;
75593;SDS011;64176;49.156;7.810;2023-03-14T14:18:29;1.52;;;0.63;;
75593;SDS011;64176;49.156;7.810;2023-03-14T14:24:00;0.82;;;0.50;;
75593;SDS011;64176;49.156;7.810;2023-03-14T14:26:50;5.20;;;1.70;;
75593;SDS011;64176;49.156;7.810;2023-03-14T14:29:38;1.98;;;0.70;;
75593;SDS011;64176;49.156;7.810;2023-03-14T14:32:22;0.65;;;0.65;;
75593;SDS011;64176;49.156;7.810;2023-03-14T14:35:08;2.00;;;0.55;;
75593;SDS011;64176;49.156;7.810;2023-03-14T14:38:10;3.15;;;0.73;;
75593;SDS011;64176;49.156;7.810;2023-03-14T14:41:03;2.08;;;1.65;;
75593;SDS011;64176;49.156;7.810;2023-03-14T14:43:49;2.47;;;0.70;;
75593;SDS011;64176;49.156;7.810;2023-03-14T14:46:35;3.15;;;0.98;;
75593;SDS011;64176;49.156;7.810;2023-03-14T14:49:27;2.38;;;1.00;;
75593;SDS011;64176;49.156;7.810;2023-03-14T14:52:13;3.38;;;1.05;;
75593;SDS011;64176;49.156;7.810;2023-03-14T14:55:02;2.35;;;1.10;;
75593;SDS011;64176;49.156;7.810;2023-03-14T14:57:50;3.03;;;0.80;;
75593;SDS011;64176;49.156;7.810;2023-03-14T15:00:38;1.92;;;0.88;;
75593;SDS011;64176;49.156;7.810;2023-03-14T15:03:31;5.68;;;0.90;;
75593;SDS011;64176;49.156;7.810;2023-03-14T15:06:19;4.65;;;2.03;;
75593;SDS011;64176;49.156;7.810;2023-03-14T15:09:08;2.50;;;1.33;;
75593;SDS011;64176;49.156;7.810;2023-03-14T15:11:56;4.80;;;1.27;;
75593;SDS011;64176;49.156;7.810;2023-03-14T15:14:40;2.35;;;0.93;;
75593;SDS011;64176;49.156;7.810;2023-03-14T15:17:26;4.80;;;1.42;;
75593;SDS011;64176;49.156;7.810;2023-03-14T15:20:12;3.35;;;1.10;;
75593;SDS011;64176;49.156;7.810;2023-03-14T15:22:59;3.40;;;1.30;;
75593;SDS011;64176;49.156;7.810;2023-03-14T15:25:43;5.28;;;1.35;;
75593;SDS011;64176;49.156;7.810;2023-03-14T15:28:31;6.90;;;1.25;;
75593;SDS011;64176;49.156;7.810;2023-03-14T15:31:18;2.70;;;1.65;;
75593;SDS011;64176;49.156;7.810;2023-03-14T15:34:07;3.35;;;1.63;;
75593;SDS011;64176;49.156;7.810;2023-03-14T15:36:52;2.28;;;0.98;;
75593;SDS011;64176;49.156;7.810;2023-03-14T15:39:41;5.40;;;1.55;;
75593;SDS011;64176;49.156;7.810;2023-03-14T15:42:28;3.63;;;2.63;;
75593;SDS011;64176;49.156;7.810;2023-03-14T15:45:15;5.32;;;1.65;;
75593;SDS011;64176;49.156;7.810;2023-03-14T15:47:59;5.00;;;1.55;;
75593;SDS011;64176;49.156;7.810;2023-03-14T15:50:45;2.90;;;1.48;;
75593;SDS011;64176;49.156;7.810;2023-03-14T15:53:29;1.90;;;1.55;;
75593;SDS011;64176;49.156;7.810;2023-03-14T15:56:15;1.83;;;1.30;;
75593;SDS011;64176;49.156;7.810;2023-03-14T15:59:08;3.47;;;1.67;;
75593;SDS011;64176;49.156;7.810;2023-03-14T16:01:52;3.42;;;1.65;;
75593;SDS011;64176;49.156;7.810;2023-03-14T16:04:39;4.78;;;1.63;;
75593;SDS011;64176;49.156;7.810;2023-03-14T16:07:25;3.92;;;1.70;;
75593;SDS011;64176;49.156;7.810;2023-03-14T16:10:10;5.40;;;1.75;;
75593;SDS011;64176;49.156;7.810;2023-03-14T16:12:54;2.45;;;1.35;;
75593;SDS011;64176;49.156;7.810;2023-03-14T16:15:52;6.25;;;1.70;;
75593;SDS011;64176;49.156;7.810;2023-03-14T16:18:43;5.50;;;2.03;;
75593;SDS011;64176;49.156;7.810;2023-03-14T16:21:27;6.63;;;2.50;;
75593;SDS011;64176;49.156;7.810;2023-03-14T16:24:13;10.25;;;3.25;;
75593;SDS011;64176;49.156;7.810;2023-03-14T16:26:59;4.60;;;0.98;;
75593;SDS011;64176;49.156;7.810;2023-03-14T16:29:46;2.90;;;1.25;;
75593;SDS011;64176;49.156;7.810;2023-03-14T16:32:31;2.53;;;2.25;;
75593;SDS011;64176;49.156;7.810;2023-03-14T16:35:15;4.72;;;1.45;;
75593;SDS011;64176;49.156;7.810;2023-03-14T16:37:59;4.43;;;1.38;;
75593;SDS011;64176;49.156;7.810;2023-03-14T16:40:44;2.83;;;1.08;;
75593;SDS011;64176;49.156;7.810;2023-03-14T16:43:31;3.75;;;1.30;;
75593;SDS011;64176;49.156;7.810;2023-03-14T16:46:16;4.85;;;1.13;;
75593;SDS011;64176;49.156;7.810;2023-03-14T16:49:01;4.07;;;1.30;;
75593;SDS011;64176;49.156;7.810;2023-03-14T16:51:45;2.03;;;0.68;;
75593;SDS011;64176;49.156;7.810;2023-03-14T16:54:32;3.13;;;1.13;;
75593;SDS011;64176;49.156;7.810;2023-03-14T16:57:17;2.63;;;1.60;;
75593;SDS011;64176;49.156;7.810;2023-03-14T17:00:01;2.22;;;0.90;;
75593;SDS011;64176;49.156;7.810;2023-03-14T17:02:45;5.18;;;0.93;;
75593;SDS011;64176;49.156;7.810;2023-03-14T17:05:29;2.10;;;0.93;;
75593;SDS011;64176;49.156;7.810;2023-03-14T17:08:17;3.22;;;0.90;;
75593;SDS011;64176;49.156;7.810;2023-03-14T17:11:02;2.78;;;0.90;;
75593;SDS011;64176;49.156;7.810;2023-03-14T17:13:47;0.93;;;0.80;;
75593;SDS011;64176;49.156;7.810;2023-03-14T17:16:31;3.33;;;1.23;;
75593;SDS011;64176;49.156;7.810;2023-03-14T17:19:17;2.78;;;1.35;;
75593;SDS011;64176;49.156;7.810;2023-03-14T17:22:01;2.13;;;1.08;;
75593;SDS011;64176;49.156;7.810;2023-03-14T17:24:48;2.75;;;1.10;;
75593;SDS011;64176;49.156;7.810;2023-03-14T17:27:32;2.38;;;1.50;;
75593;SDS011;64176;49.156;7.810;2023-03-14T17:30:21;5.68;;;1.73;;
75593;SDS011;64176;49.156;7.810;2023-03-14T17:33:05;3.38;;;1.73;;
75593;SDS011;64176;49.156;7.810;2023-03-14T17:35:49;6.32;;;2.53;;
75593;SDS011;64176;49.156;7.810;2023-03-14T17:38:36;36.15;;;18.13;;
75593;SDS011;64176;49.156;7.810;2023-03-14T17:41:20;22.38;;;9.48;;
75593;SDS011;64176;49.156;7.810;2023-03-14T17:44:05;8.40;;;4.45;;
75593;SDS011;64176;49.156;7.810;2023-03-14T17:46:55;24.30;;;13.15;;
75593;SDS011;64176;49.156;7.810;2023-03-14T17:49:42;7.70;;;3.85;;
75593;SDS011;64176;49.156;7.810;2023-03-14T17:52:26;2.92;;;1.75;;
75593;SDS011;64176;49.156;7.810;2023-03-14T17:55:10;7.63;;;2.63;;
75593;SDS011;64176;49.156;7.810;2023-03-14T17:57:54;42.25;;;22.63;;
75593;SDS011;64176;49.156;7.810;2023-03-14T18:00:41;39.97;;;19.70;;